Time;durP1;ratioP1;P1;durP2;ratioP2;P2;SDS_P1;SDS_P2;PMS_P1;PMS_P2;Temp;Humidity;BMP_temperature;BMP_pressure;BME280_temperature;BME280_humidity;BME280_pressure;Samples;Min_cycle;Max_cycle;Signal;HPM_P1;HPM_P2
2021/09/29 00:01:10;;;;;;;154.77;37.50;;;;;16.50;100692.00;;;;4817728;29;20054;-81
2021/09/29 00:03:39;;;;;;;103.30;34.60;;;;;16.50;100666.00;;;;4816917;29;20144;-80
2021/09/29 00:06:09;;;;;;;97.03;34.72;;;;;16.40;100658.00;;;;4817838;29;20058;-79
2021/09/29 00:08:38;;;;;;;91.82;32.17;;;;;16.40;100665.00;;;;4817200;29;20122;-79
2021/09/29 00:11:08;;;;;;;85.63;31.95;;;;;16.30;100678.00;;;;4817821;29;20503;-78
2021/09/29 00:13:38;;;;;;;114.38;34.33;;;;;16.30;100679.00;;;;4817924;29;20058;-79
2021/09/29 00:16:07;;;;;;;153.57;35.90;;;;;16.30;100694.00;;;;4817724;29;20057;-78
2021/09/29 00:18:36;;;;;;;80.53;30.40;;;;;16.40;100701.00;;;;4818151;29;20133;-79
2021/09/29 00:21:06;;;;;;;93.50;32.47;;;;;16.50;100719.00;;;;4817469;29;20703;-79
2021/09/29 00:23:35;;;;;;;99.63;34.97;;;;;16.50;100720.00;;;;4818055;29;20065;-78
2021/09/29 00:26:05;;;;;;;154.38;37.75;;;;;16.50;100723.00;;;;4816280;29;20529;-79
2021/09/29 00:28:34;;;;;;;250.13;40.10;;;;;16.50;100727.00;;;;4817695;29;20443;-78
2021/09/29 00:31:12;;;;;;;80.88;28.90;;;;;16.50;100734.00;;;;4809856;29;20057;-78
2021/09/29 00:33:46;;;;;;;64.80;23.90;;;;;16.50;100699.00;;;;4817392;29;20134;-78
2021/09/29 00:36:16;;;;;;;60.65;22.65;;;;;16.50;100714.00;;;;4817745;29;20050;-78
2021/09/29 00:38:45;;;;;;;85.60;48.17;;;;;16.50;100674.00;;;;4817683;29;20050;-78
2021/09/29 00:41:14;;;;;;;87.30;22.27;;;;;16.50;100668.00;;;;4747312;29;2075517;-79
2021/09/29 00:43:46;;;;;;;123.65;27.17;;;;;16.50;100661.00;;;;4818035;29;20393;-79
2021/09/29 00:46:15;;;;;;;61.00;21.90;;;;;16.50;100664.00;;;;4817897;29;20045;-79
2021/09/29 00:48:45;;;;;;;42.20;19.52;;;;;16.40;100676.00;;;;4818260;29;20038;-79
2021/09/29 00:51:14;;;;;;;44.03;19.60;;;;;16.40;100655.00;;;;4817706;29;20054;-79
2021/09/29 00:53:45;;;;;;;60.33;23.48;;;;;16.50;100678.00;;;;4817969;29;20047;-79
2021/09/29 00:56:15;;;;;;;;;;;;;16.50;100715.00;;;;4818607;29;20050;-79
2021/09/29 00:58:45;;;;;;;58.80;24.13;;;;;16.50;100684.00;;;;4817552;29;19952;-78
2021/09/29 01:01:14;;;;;;;25.80;13.00;;;;;16.40;100699.00;;;;4817783;29;20046;-80
2021/09/29 01:03:46;;;;;;;22.73;15.65;;;;;16.50;100695.00;;;;4818347;29;20050;-79
2021/09/29 01:06:28;;;;;;;61.30;45.58;;;;;16.40;100686.00;;;;4817334;29;20050;-79
2021/09/29 01:09:09;;;;;;;11.13;7.00;;;;;16.50;100699.00;;;;4817232;29;20050;-79
2021/09/29 01:12:17;;;;;;;28.55;13.30;;;;;16.50;100690.00;;;;4817733;29;20403;-79
2021/09/29 01:14:56;;;;;;;84.00;31.90;;;;;16.40;100679.00;;;;4817067;29;20133;-79
2021/09/29 01:17:28;;;;;;;61.83;26.48;;;;;16.40;100651.00;;;;4817523;29;20251;-79
2021/09/29 01:19:57;;;;;;;;;;;;;16.40;100651.00;;;;4818508;29;20459;-78
2021/09/29 01:22:41;;;;;;;69.47;30.65;;;;;16.30;100634.00;;;;4816525;29;19936;-79
2021/09/29 01:25:26;;;;;;;82.10;31.98;;;;;16.30;100648.00;;;;4816681;29;20046;-78
2021/09/29 01:27:59;;;;;;;8.57;5.53;;;;;16.30;100639.00;;;;4818595;29;20061;-77
2021/09/29 01:30:32;;;;;;;12.30;7.15;;;;;16.30;100645.00;;;;4818080;29;20589;-80
2021/09/29 01:33:03;;;;;;;20.83;10.27;;;;;16.30;100642.00;;;;4801675;29;20054;-78
2021/09/29 01:35:32;;;;;;;19.03;10.47;;;;;16.20;100598.00;;;;4817916;29;20058;-79
2021/09/29 01:38:02;;;;;;;30.83;13.43;;;;;16.20;100596.00;;;;4817964;29;20061;-78
2021/09/29 01:40:32;;;;;;;14.77;8.80;;;;;16.20;100575.00;;;;4812397;29;20515;-77
2021/09/29 01:43:02;;;;;;;14.43;7.70;;;;;16.10;100579.00;;;;4818004;29;20050;-77
2021/09/29 01:45:31;;;;;;;30.67;14.15;;;;;16.10;100577.00;;;;4818101;29;20055;-77
2021/09/29 01:48:00;;;;;;;2.13;1.67;;;;;16.10;100607.00;;;;4818375;29;20055;-77
2021/09/29 01:50:32;;;;;;;17.00;9.75;;;;;16.10;100589.00;;;;4817544;29;20043;-77
2021/09/29 01:53:02;;;;;;;;;;;;;16.10;100591.00;;;;4818354;29;20053;-77
2021/09/29 01:55:32;;;;;;;55.60;19.45;;;;;16.10;100575.00;;;;4817662;29;19928;-77
2021/09/29 01:58:03;;;;;;;46.35;19.23;;;;;16.10;100586.00;;;;4817564;29;20055;-77
2021/09/29 02:00:32;;;;;;;39.17;19.52;;;;;16.10;100589.00;;;;4820336;29;20046;-77
2021/09/29 02:03:02;;;;;;;58.80;21.15;;;;;16.00;100608.00;;;;4820471;29;20070;-77
2021/09/29 02:05:36;;;;;;;63.63;21.23;;;;;16.00;100611.00;;;;4820541;29;20054;-77
2021/09/29 02:08:08;;;;;;;58.35;19.90;;;;;15.90;100587.00;;;;4820540;29;20046;-77
2021/09/29 02:10:38;;;;;;;53.75;20.17;;;;;15.90;100572.00;;;;4820244;29;20046;-77
2021/09/29 02:13:07;;;;;;;80.47;19.85;;;;;15.80;100600.00;;;;4821068;29;20047;-78
2021/09/29 02:15:37;;;;;;;70.18;20.42;;;;;15.80;100624.00;;;;4820171;29;20054;-77
2021/09/29 02:18:06;;;;;;;80.93;21.40;;;;;15.80;100620.00;;;;4820785;29;20065;-77
2021/09/29 02:20:36;;;;;;;51.13;20.83;;;;;15.70;100629.00;;;;4820120;29;20383;-77
2021/09/29 02:23:05;;;;;;;77.78;22.65;;;;;15.80;100625.00;;;;4820353;29;20058;-78
2021/09/29 02:25:34;;;;;;;72.07;21.38;;;;;15.70;100592.00;;;;4820095;29;20537;-77
2021/09/29 02:28:04;;;;;;;73.80;20.65;;;;;15.70;100613.00;;;;4819869;29;20050;-78
2021/09/29 02:30:34;;;;;;;86.07;21.38;;;;;15.70;100620.00;;;;4820195;29;20777;-77
2021/09/29 02:33:04;;;;;;;116.15;24.17;;;;;15.60;100606.00;;;;4820290;29;20427;-77
2021/09/29 02:35:34;;;;;;;69.78;21.85;;;;;15.60;100614.00;;;;4820091;29;20046;-77
2021/09/29 02:38:03;;;;;;;81.22;22.02;;;;;15.70;100604.00;;;;4820815;29;20070;-77
2021/09/29 02:40:33;;;;;;;74.97;20.15;;;;;15.70;100590.00;;;;4819181;29;20050;-77
2021/09/29 02:43:02;;;;;;;74.32;20.90;;;;;15.60;100593.00;;;;4820671;29;20058;-77
2021/09/29 02:45:32;;;;;;;89.65;20.83;;;;;15.60;100591.00;;;;4820176;29;20541;-77
2021/09/29 02:48:01;;;;;;;141.63;23.73;;;;;15.60;100621.00;;;;4820183;29;20054;-77
2021/09/29 02:50:31;;;;;;;54.35;14.70;;;;;15.60;100617.00;;;;4819585;29;20050;-77
2021/09/29 02:53:00;;;;;;;120.65;21.40;;;;;15.60;100608.00;;;;4819614;29;20055;-77
2021/09/29 02:55:29;;;;;;;90.40;21.23;;;;;15.60;100606.00;;;;4820163;29;20062;-78
2021/09/29 02:58:02;;;;;;;65.15;16.98;;;;;15.70;100655.00;;;;4819881;29;20046;-77
2021/09/29 03:00:31;;;;;;;18.20;7.43;;;;;15.80;100635.00;;;;4819979;29;20545;-77
2021/09/29 03:03:01;;;;;;;40.55;13.02;;;;;15.80;100615.00;;;;4820069;29;20052;-77
2021/09/29 03:05:30;;;;;;;46.35;14.25;;;;;15.80;100586.00;;;;4819364;29;20535;-77
2021/09/29 03:08:00;;;;;;;5.78;3.35;;;;;15.80;100571.00;;;;4819416;29;20127;-77
2021/09/29 03:10:30;;;;;;;24.20;7.93;;;;;15.80;100587.00;;;;4820003;29;20039;-77
2021/09/29 03:12:59;;;;;;;46.08;14.02;;;;;15.80;100586.00;;;;4819641;29;20510;-79
2021/09/29 03:15:28;;;;;;;67.18;15.57;;;;;15.80;100596.00;;;;4819819;29;20054;-77
2021/09/29 03:17:58;;;;;;;49.55;15.82;;;;;15.80;100613.00;;;;4818202;29;20054;-78
2021/09/29 03:20:27;;;;;;;36.40;15.30;;;;;15.80;100619.00;;;;4820013;29;20452;-78
2021/09/29 03:22:58;;;;;;;38.28;15.48;;;;;15.90;100638.00;;;;4820374;29;20518;-78
2021/09/29 03:25:27;;;;;;;43.00;15.47;;;;;15.90;100634.00;;;;4818516;29;20523;-79
2021/09/29 03:27:57;;;;;;;39.33;16.00;;;;;15.90;100627.00;;;;4819429;29;20434;-79
2021/09/29 03:30:26;;;;;;;61.45;15.45;;;;;15.90;100616.00;;;;4820635;29;20066;-79
2021/09/29 03:32:56;;;;;;;35.80;13.90;;;;;16.00;100621.00;;;;4840588;29;20082;-79
2021/09/29 03:35:25;;;;;;;37.78;14.10;;;;;16.00;100599.00;;;;4840953;29;20050;-79
2021/09/29 03:37:55;;;;;;;33.92;13.40;;;;;16.10;100604.00;;;;4823572;29;20050;-79
2021/09/29 03:40:25;;;;;;;34.88;13.32;;;;;16.10;100617.00;;;;4819156;29;20046;-78
2021/09/29 03:42:54;;;;;;;49.33;14.73;;;;;16.10;100622.00;;;;4818988;29;20082;-79
2021/09/29 03:45:24;;;;;;;54.60;14.38;;;;;16.10;100642.00;;;;4819156;29;20057;-79
2021/09/29 03:47:53;;;;;;;34.38;12.90;;;;;16.10;100631.00;;;;4802812;29;20515;-78
2021/09/29 03:50:23;;;;;;;36.78;12.23;;;;;16.10;100624.00;;;;4819153;29;20047;-79
2021/09/29 03:52:52;;;;;;;29.40;12.70;;;;;16.10;100612.00;;;;4819203;29;20089;-79
2021/09/29 03:55:22;;;;;;;56.53;14.90;;;;;16.10;100641.00;;;;4818462;29;20062;-78
2021/09/29 03:57:51;;;;;;;42.80;13.77;;;;;16.10;100667.00;;;;4818838;29;20438;-78
2021/09/29 04:00:21;;;;;;;49.88;15.15;;;;;16.10;100671.00;;;;4818684;29;20455;-79
2021/09/29 04:02:50;;;;;;;38.75;13.23;;;;;16.10;100679.00;;;;4819311;29;20049;-79
2021/09/29 04:05:20;;;;;;;28.98;11.73;;;;;16.10;100669.00;;;;4819395;29;20129;-80
2021/09/29 04:07:50;;;;;;;27.73;12.15;;;;;16.10;100655.00;;;;4819356;29;20522;-79
2021/09/29 04:10:19;;;;;;;34.88;12.05;;;;;16.10;100660.00;;;;4818719;29;20131;-79
2021/09/29 04:12:49;;;;;;;42.38;12.48;;;;;16.10;100631.00;;;;4818877;29;20062;-79
2021/09/29 04:15:18;;;;;;;56.22;15.25;;;;;16.10;100649.00;;;;4818332;29;20529;-79
2021/09/29 04:17:48;;;;;;;29.25;12.30;;;;;16.10;100640.00;;;;4818911;29;20051;-79
2021/09/29 04:20:17;;;;;;;24.23;10.40;;;;;16.10;100651.00;;;;4817363;29;20061;-79
2021/09/29 04:22:47;;;;;;;33.25;9.18;;;;;16.10;100640.00;;;;4817610;29;20132;-79
2021/09/29 04:25:16;;;;;;;20.60;8.55;;;;;16.10;100647.00;;;;4818684;29;20054;-79
2021/09/29 04:27:45;;;;;;;35.72;11.32;;;;;16.10;100631.00;;;;4818177;29;20057;-79
2021/09/29 04:30:15;;;;;;;30.30;11.35;;;;;16.10;100634.00;;;;4818606;29;20054;-79
2021/09/29 04:32:45;;;;;;;54.75;12.25;;;;;16.10;100644.00;;;;4818588;29;20430;-78
2021/09/29 04:35:17;;;;;;;34.25;10.27;;;;;16.20;100652.00;;;;4818137;29;20062;-78
2021/09/29 04:37:47;;;;;;;53.50;11.75;;;;;16.10;100656.00;;;;4817265;29;20072;-78
2021/09/29 04:40:16;;;;;;;31.83;9.65;;;;;16.10;100637.00;;;;4818131;29;20150;-79
2021/09/29 04:42:46;;;;;;;52.10;11.73;;;;;16.20;100637.00;;;;4816900;29;20443;-78
2021/09/29 04:45:16;;;;;;;29.10;9.43;;;;;16.10;100643.00;;;;4818992;29;20482;-78
2021/09/29 04:47:46;;;;;;;22.10;8.45;;;;;16.10;100632.00;;;;4816620;29;20050;-78
2021/09/29 04:50:15;;;;;;;32.55;9.13;;;;;16.10;100642.00;;;;4817678;29;20049;-78
2021/09/29 04:52:45;;;;;;;65.28;12.18;;;;;16.20;100644.00;;;;4818305;29;20057;-78
2021/09/29 04:55:15;;;;;;;24.35;9.82;;;;;16.10;100647.00;;;;4818559;29;20058;-78
2021/09/29 04:57:44;;;;;;;29.05;9.38;;;;;16.10;100644.00;;;;4817939;29;20107;-78
2021/09/29 05:00:15;;;;;;;41.13;13.48;;;;;16.20;100652.00;;;;4818121;29;20111;-79
2021/09/29 05:02:47;;;;;;;107.22;21.83;;;;;16.20;100648.00;;;;4818211;29;20073;-78
2021/09/29 05:05:18;;;;;;;152.95;24.08;;;;;16.20;100641.00;;;;4818177;29;20042;-78
2021/09/29 05:07:49;;;;;;;108.70;23.25;;;;;16.20;100642.00;;;;4817618;29;20540;-78
2021/09/29 05:10:30;;;;;;;62.17;18.15;;;;;16.20;100613.00;;;;4818166;29;20527;-78
2021/09/29 05:13:00;;;;;;;;;;;;;16.20;100631.00;;;;4818844;29;20418;-78
2021/09/29 05:15:30;;;;;;;53.42;17.65;;;;;16.20;100633.00;;;;4818909;29;19938;-78
2021/09/29 05:17:59;;;;;;;70.40;18.67;;;;;16.20;100621.00;;;;4817957;29;20100;-78
2021/09/29 05:20:28;;;;;;;76.82;20.20;;;;;16.30;100633.00;;;;4817269;29;20268;-78
2021/09/29 05:22:58;;;;;;;60.95;19.08;;;;;16.30;100618.00;;;;4817670;29;20075;-78
2021/09/29 05:25:27;;;;;;;86.60;20.77;;;;;16.30;100626.00;;;;4817436;29;20054;-78
2021/09/29 05:27:57;;;;;;;47.25;18.85;;;;;16.30;100622.00;;;;4817505;29;20073;-78
2021/09/29 05:30:26;;;;;;;54.97;19.90;;;;;16.30;100619.00;;;;4817824;29;20078;-78
2021/09/29 05:32:56;;;;;;;60.42;21.02;;;;;16.30;100634.00;;;;4817825;29;20060;-78
2021/09/29 05:35:25;;;;;;;68.57;20.38;;;;;16.30;100630.00;;;;4820042;29;20077;-78
2021/09/29 05:37:55;;;;;;;56.90;21.00;;;;;16.30;100608.00;;;;4819538;29;20572;-78
2021/09/29 05:40:24;;;;;;;79.85;21.23;;;;;16.30;100624.00;;;;4821337;29;20050;-78
2021/09/29 05:42:54;;;;;;;62.38;18.88;;;;;16.30;100609.00;;;;4820858;29;20138;-78
2021/09/29 05:45:23;;;;;;;71.57;20.10;;;;;16.30;100607.00;;;;4820830;29;20518;-78
2021/09/29 05:47:53;;;;;;;87.80;22.45;;;;;16.30;100605.00;;;;4819274;29;20541;-78
2021/09/29 05:50:22;;;;;;;59.20;21.20;;;;;16.30;100612.00;;;;4819357;29;20093;-78
2021/09/29 05:52:51;;;;;;;128.18;26.13;;;;;16.30;100621.00;;;;4820655;29;20061;-78
2021/09/29 05:55:21;;;;;;;90.50;23.60;;;;;16.30;100606.00;;;;4819142;29;20061;-78
2021/09/29 05:57:50;;;;;;;138.70;28.15;;;;;16.30;100610.00;;;;4821044;29;20057;-78
2021/09/29 06:00:20;;;;;;;86.82;26.48;;;;;16.30;100606.00;;;;4804929;29;20584;-78
2021/09/29 06:02:49;;;;;;;71.40;28.42;;;;;16.40;100618.00;;;;4821304;29;20046;-78
2021/09/29 06:05:21;;;;;;;81.75;28.67;;;;;16.40;100596.00;;;;4819542;29;20054;-78
2021/09/29 06:07:51;;;;;;;83.45;29.67;;;;;16.40;100604.00;;;;4820893;29;20099;-78
2021/09/29 06:10:20;;;;;;;104.13;31.02;;;;;16.40;100594.00;;;;4819565;29;20070;-78
2021/09/29 06:12:50;;;;;;;163.25;38.72;;;;;16.40;100601.00;;;;4820234;29;20131;-78
2021/09/29 06:15:22;;;;;;;88.82;30.52;;;;;16.40;100592.00;;;;4804533;29;20101;-78
2021/09/29 06:17:56;;;;;;;92.25;31.42;;;;;16.40;100594.00;;;;4820078;29;20058;-77
2021/09/29 06:24:52;;;;;;;103.75;36.30;;;;;16.50;100602.00;;;;4814903;29;20054;-78
2021/09/29 06:27:21;;;;;;;115.07;38.90;;;;;16.50;100602.00;;;;4802084;29;20470;-78
2021/09/29 06:29:51;;;;;;;107.28;38.25;;;;;16.50;100575.00;;;;4785912;29;20097;-78
2021/09/29 06:32:20;;;;;;;136.60;40.67;;;;;16.50;100580.00;;;;4801773;29;20461;-78
2021/09/29 06:34:50;;;;;;;120.03;39.63;;;;;16.50;100591.00;;;;4800784;29;20077;-78
2021/09/29 06:37:19;;;;;;;236.70;46.42;;;;;16.50;100589.00;;;;4801522;29;20055;-78
2021/09/29 06:39:48;;;;;;;154.48;42.55;;;;;16.50;100603.00;;;;4802283;29;20096;-78
2021/09/29 06:42:18;;;;;;;148.43;43.38;;;;;16.50;100596.00;;;;4801266;29;20058;-78
2021/09/29 06:44:47;;;;;;;50.08;17.13;;;;;16.50;100589.00;;;;4800042;29;20054;-78
2021/09/29 06:47:16;;;;;;;28.52;10.82;;;;;16.50;100581.00;;;;4802451;29;20059;-79
2021/09/29 06:49:46;;;;;;;173.60;46.50;;;;;16.50;100598.00;;;;4802264;29;20050;-78
2021/09/29 06:52:15;;;;;;;141.45;43.67;;;;;16.50;100579.00;;;;4802186;29;20109;-78
2021/09/29 06:54:44;;;;;;;152.80;44.95;;;;;16.50;100599.00;;;;4802083;29;20485;-78
2021/09/29 06:57:14;;;;;;;160.90;37.97;;;;;16.50;100600.00;;;;4802050;29;20053;-78
2021/09/29 06:59:43;;;;;;;171.25;46.38;;;;;16.50;100573.00;;;;4802018;29;20117;-78
2021/09/29 07:02:13;;;;;;;166.73;47.28;;;;;16.50;100611.00;;;;4801547;29;20526;-81
2021/09/29 07:04:42;;;;;;;185.68;49.63;;;;;16.50;100580.00;;;;4801357;29;20058;-79
2021/09/29 07:07:12;;;;;;;194.45;50.70;;;;;16.50;100609.00;;;;4801281;29;20051;-80
2021/09/29 07:09:41;;;;;;;251.70;56.17;;;;;16.50;100596.00;;;;4801720;29;20051;-79
2021/09/29 07:12:10;;;;;;;191.13;49.13;;;;;16.50;100599.00;;;;4799941;29;20055;-80
2021/09/29 07:14:40;;;;;;;246.10;50.17;;;;;16.50;100605.00;;;;4801287;29;20047;-79
2021/09/29 07:17:09;;;;;;;199.45;50.15;;;;;16.50;100589.00;;;;4801288;29;20058;-79
2021/09/29 07:19:40;;;;;;;307.23;56.67;;;;;16.50;100604.00;;;;4801280;29;20134;-79
2021/09/29 07:22:09;;;;;;;143.77;39.95;;;;;16.50;100624.00;;;;4801579;29;20534;-81
2021/09/29 07:24:38;;;;;;;187.55;40.75;;;;;16.50;100610.00;;;;4801341;29;20047;-78
2021/09/29 07:27:08;;;;;;;79.50;31.50;;;;;16.50;100615.00;;;;4785920;29;20066;-79
2021/09/29 07:29:37;;;;;;;94.88;33.67;;;;;16.50;100601.00;;;;4801665;29;20074;-81
2021/09/29 07:32:07;;;;;;;155.13;38.03;;;;;16.50;100604.00;;;;4799401;29;20515;-80
2021/09/29 07:34:37;;;;;;;194.35;41.90;;;;;16.50;100619.00;;;;4800906;29;20058;-78
2021/09/29 07:37:07;;;;;;;119.93;41.28;;;;;16.50;100624.00;;;;4799934;29;20580;-80
2021/09/29 07:39:36;;;;;;;120.15;42.10;;;;;16.60;100623.00;;;;4801515;29;20054;-80
2021/09/29 07:42:05;;;;;;;169.07;43.55;;;;;16.50;100627.00;;;;4800784;29;20058;-78
2021/09/29 07:44:35;;;;;;;315.52;50.97;;;;;16.50;100616.00;;;;4800855;29;20053;-79
2021/09/29 07:47:05;;;;;;;221.15;45.35;;;;;16.50;100615.00;;;;4800571;29;20696;-79
2021/09/29 07:49:35;;;;;;;132.75;37.13;;;;;16.50;100603.00;;;;4800684;29;20120;-78
2021/09/29 07:52:06;;;;;;;176.15;40.35;;;;;16.50;100611.00;;;;4801249;29;20096;-79
2021/09/29 07:54:36;;;;;;;167.05;40.00;;;;;16.50;100623.00;;;;4801072;29;20054;-78
2021/09/29 07:57:05;;;;;;;165.10;39.78;;;;;16.50;100624.00;;;;4820711;29;20117;-79
2021/09/29 07:59:35;;;;;;;192.88;39.35;;;;;16.50;100627.00;;;;4823740;29;20077;-79
2021/09/29 08:02:05;;;;;;;157.35;36.40;;;;;16.50;100629.00;;;;4821063;29;20054;-78
2021/09/29 08:04:34;;;;;;;102.97;32.10;;;;;16.50;100627.00;;;;4818919;29;20081;-78
2021/09/29 08:07:04;;;;;;;87.13;27.88;;;;;16.50;100616.00;;;;4819240;29;20377;-78
2021/09/29 08:09:33;;;;;;;42.22;10.90;;;;;16.40;100635.00;;;;4818781;29;20099;-78
2021/09/29 08:12:03;;;;;;;78.25;23.50;;;;;16.50;100612.00;;;;4818363;29;20438;-78
2021/09/29 08:14:33;;;;;;;27.48;12.23;;;;;16.50;100623.00;;;;4818792;29;20055;-79
2021/09/29 08:17:03;;;;;;;53.00;13.50;;;;;16.50;100633.00;;;;4818634;29;20053;-79
2021/09/29 08:19:32;;;;;;;20.40;8.45;;;;;16.50;100621.00;;;;4816461;29;20062;-79
2021/09/29 08:22:06;;;;;;;31.63;9.50;;;;;16.50;100617.00;;;;4818638;29;20115;-79
2021/09/29 08:24:43;;;;;;;17.77;7.50;;;;;16.50;100633.00;;;;4818106;29;20061;-78
2021/09/29 08:27:23;;;;;;;36.53;13.32;;;;;16.50;100628.00;;;;4818159;29;20074;-78
2021/09/29 08:30:05;;;;;;;20.77;9.88;;;;;16.50;100633.00;;;;4818347;29;20582;-78
2021/09/29 08:32:42;;;;;;;14.73;6.32;;;;;16.60;100619.00;;;;4818246;29;20097;-79
2021/09/29 08:38:33;;;;;;;6.47;3.40;;;;;16.50;100638.00;;;;4779116;30;20548;-79
2021/09/29 08:41:42;;;;;;;10.80;5.20;;;;;16.50;100627.00;;;;4815016;29;20559;-79
2021/09/29 08:44:03;;;;;;;26.25;11.15;;;;;16.60;100644.00;;;;4818111;29;20506;-78
2021/09/29 08:46:56;;;;;;;12.07;6.78;;;;;16.50;100646.00;;;;4817867;29;20056;-78
2021/09/29 08:49:40;;;;;;;7.93;5.18;;;;;16.50;100645.00;;;;4817139;29;20461;-78
2021/09/29 08:52:21;;;;;;;1.88;1.63;;;;;16.60;100638.00;;;;4818314;29;20057;-77
2021/09/29 09:17:06;;;;;;;7.38;4.45;;;;;16.60;100646.00;;;;4817092;29;20497;-79
2021/09/29 09:19:36;;;;;;;5.50;3.40;;;;;16.60;100658.00;;;;4819895;29;20058;-79
2021/09/29 09:22:06;;;;;;;3.83;2.92;;;;;16.60;100673.00;;;;4819087;29;20054;-79
2021/09/29 09:24:38;;;;;;;1.35;1.25;;;;;16.60;100669.00;;;;4817295;29;20055;-79
2021/09/29 09:27:15;;;;;;;87.50;30.55;;;;;16.60;100658.00;;;;4818125;29;20510;-77
2021/09/29 09:29:47;;;;;;;74.82;29.77;;;;;16.60;100661.00;;;;4816764;29;20054;-80
2021/09/29 09:32:25;;;;;;;52.05;22.48;;;;;16.60;100669.00;;;;4817626;29;20133;-78
2021/09/29 09:35:05;;;;;;;53.15;23.38;;;;;16.60;100672.00;;;;4817892;29;20135;-78
2021/09/29 09:37:44;;;;;;;78.47;26.25;;;;;16.60;100676.00;;;;4817939;29;20616;-78
2021/09/29 09:40:18;;;;;;;77.15;26.73;;;;;16.60;100676.00;;;;4816343;29;20050;-79
2021/09/29 09:42:57;;;;;;;69.78;25.77;;;;;16.60;100680.00;;;;4817417;29;20416;-79
2021/09/29 09:45:48;;;;;;;90.30;28.33;;;;;16.70;100687.00;;;;4817544;29;20066;-81
2021/09/29 09:48:21;;;;;;;85.65;28.45;;;;;16.70;100703.00;;;;4817716;29;20116;-78
2021/09/29 09:51:07;;;;;;;91.20;32.97;;;;;16.80;100701.00;;;;4815574;29;20577;-80
2021/09/29 09:53:37;;;;;;;21.95;9.07;;;;;16.70;100697.00;;;;4817022;29;20050;-79
2021/09/29 09:56:14;;;;;;;9.50;5.03;;;;;16.70;100701.00;;;;4815004;29;20064;-78
2021/09/29 09:58:46;;;;;;;27.55;15.02;;;;;16.70;100695.00;;;;4816170;29;20053;-78
2021/09/29 10:01:18;;;;;;;82.38;22.60;;;;;16.80;100697.00;;;;4815690;29;20103;-79
2021/09/29 10:03:50;;;;;;;2.08;1.38;;;;;16.80;100713.00;;;;4816516;29;20065;-78
2021/09/29 10:06:21;;;;;;;55.58;24.88;;;;;16.80;100709.00;;;;4816613;29;20103;-79
2021/09/29 10:09:03;;;;;;;74.47;21.45;;;;;16.80;100706.00;;;;4815142;29;20515;-78
2021/09/29 10:12:00;;;;;;;31.35;14.38;;;;;16.80;100706.00;;;;4816939;29;20080;-77
2021/09/29 10:26:14;;;;;;;15.32;6.70;;;;;16.90;100743.00;;;;4781540;29;20055;-78
2021/09/29 10:28:44;;;;;;;37.58;11.18;;;;;16.90;100733.00;;;;4802101;29;20122;-77
2021/09/29 10:34:02;;;;;;;10.73;6.55;;;;;16.80;100756.00;;;;4820256;29;20057;-78
2021/09/29 10:36:46;;;;;;;7.95;5.10;;;;;16.90;100756.00;;;;4819827;29;20111;-77
2021/09/29 10:42:27;;;;;;;20.75;11.05;;;;;16.90;100766.00;;;;4819863;29;20066;-79
2021/09/29 11:05:09;;;;;;;17.85;10.48;;;;;17.00;100779.00;;;;4819164;29;20039;-78
2021/09/29 11:30:05;;;;;;;1.83;1.10;;;;;17.50;100780.00;;;;4818640;29;20103;-78
2021/09/29 11:32:40;;;;;;;15.43;8.20;;;;;17.70;100781.00;;;;4818306;29;20830;-79
2021/09/29 11:35:24;;;;;;;11.27;7.15;;;;;17.70;100802.00;;;;4819355;29;20089;-78
2021/09/29 11:38:43;;;;;;;8.20;4.47;;;;;17.70;100792.00;;;;4819448;29;20051;-79
2021/09/29 11:49:40;;;;;;;8.90;5.43;;;;;17.80;100795.00;;;;4819341;29;20050;-78
2021/09/29 12:09:05;;;;;;;11.45;3.00;;;;;17.90;100820.00;;;;4818935;29;20107;-78
2021/09/29 12:11:54;;;;;;;6.18;2.10;;;;;17.80;100816.00;;;;4818273;29;20534;-78
2021/09/29 12:14:25;;;;;;;9.00;2.33;;;;;17.90;100818.00;;;;4818056;29;20050;-78
2021/09/29 12:16:55;;;;;;;8.63;2.47;;;;;17.90;100826.00;;;;4819396;29;20046;-78
2021/09/29 12:19:27;;;;;;;10.15;2.47;;;;;18.00;100831.00;;;;4825031;29;20038;-78
2021/09/29 12:21:58;;;;;;;11.93;9.27;;;;;18.10;100820.00;;;;4843481;29;20102;-78
2021/09/29 12:24:33;;;;;;;21.45;4.28;;;;;18.20;100835.00;;;;4842648;29;20050;-78
2021/09/29 12:27:05;;;;;;;28.42;5.05;;;;;18.40;100813.00;;;;4819028;29;20050;-78
2021/09/29 12:29:36;;;;;;;;;;;;;18.60;100830.00;;;;4818951;29;20046;-78
2021/09/29 12:32:20;;;;;;;7.03;1.90;;;;;18.60;100824.00;;;;4818378;29;19960;-79
2021/09/29 12:37:57;;;;;;;18.65;3.20;;;;;18.80;100826.00;;;;4817043;29;20526;-78
2021/09/29 12:40:30;;;;;;;19.65;4.05;;;;;18.90;100838.00;;;;4817947;29;20049;-78
2021/09/29 12:43:03;;;;;;;22.27;4.40;;;;;19.10;100818.00;;;;4817521;29;20073;-79
2021/09/29 12:45:38;;;;;;;25.35;4.35;;;;;19.20;100816.00;;;;4818133;29;20034;-79
2021/09/29 12:48:10;;;;;;;13.63;3.30;;;;;19.30;100797.00;;;;4818423;29;20042;-79
2021/09/29 12:50:58;;;;;;;;;;;;;19.50;100810.00;;;;4817993;29;20439;-79
2021/09/29 12:56:15;;;;;;;0.20;0.20;;;;;19.40;100823.00;;;;4801289;29;20058;-77
2021/09/29 12:58:46;;;;;;;0.00;0.00;;;;;19.30;100833.00;;;;4816729;29;20537;-80
2021/09/29 13:01:16;;;;;;;0.15;0.15;;;;;19.20;100847.00;;;;4817985;29;20051;-79
2021/09/29 13:03:46;;;;;;;0.17;0.17;;;;;19.10;100823.00;;;;4818719;29;20133;-78
2021/09/29 13:06:15;;;;;;;0.10;0.10;;;;;19.30;100828.00;;;;4817514;29;20058;-78
2021/09/29 13:08:44;;;;;;;0.40;0.30;;;;;19.30;100839.00;;;;4818322;29;20050;-79
2021/09/29 13:11:14;;;;;;;0.40;0.38;;;;;19.30;100835.00;;;;4818403;29;20476;-79
2021/09/29 13:13:44;;;;;;;24.40;4.25;;;;;19.40;100837.00;;;;4817999;29;20042;-78
2021/09/29 13:16:14;;;;;;;19.13;11.85;;;;;19.30;100827.00;;;;4817023;29;20062;-79
2021/09/29 13:18:51;;;;;;;0.73;0.50;;;;;19.40;100813.00;;;;4817982;29;20047;-78
2021/09/29 13:24:03;;;;;;;3.03;1.08;;;;;19.60;100825.00;;;;4817147;29;20058;-78
2021/09/29 13:37:29;;;;;;;0.30;0.30;;;;;20.30;100801.00;;;;4817388;29;20054;-78
2021/09/29 13:39:58;;;;;;;6.72;1.42;;;;;20.50;100804.00;;;;4817310;29;20058;-78
2021/09/29 13:42:28;;;;;;;6.18;1.40;;;;;20.60;100808.00;;;;4817394;29;20574;-78
2021/09/29 13:44:58;;;;;;;1.42;0.80;;;;;20.70;100790.00;;;;4817946;29;20058;-77
2021/09/29 13:47:27;;;;;;;2.65;1.00;;;;;20.80;100778.00;;;;4817602;29;20054;-79
2021/09/29 13:49:57;;;;;;;2.13;0.70;;;;;20.80;100815.00;;;;4816091;29;20133;-79
2021/09/29 13:52:27;;;;;;;4.30;2.45;;;;;20.50;100822.00;;;;4817572;29;20050;-79
2021/09/29 13:55:00;;;;;;;24.08;21.65;;;;;20.00;100827.00;;;;4817937;29;20058;-78
2021/09/29 13:57:36;;;;;;;14.60;3.65;;;;;19.80;100834.00;;;;4819653;29;20103;-78
2021/09/29 14:30:42;;;;;;;6.85;4.85;;;;;22.20;100742.00;;;;4821651;29;20054;-80
2021/09/29 14:35:48;;;;;;;2.72;0.75;;;;;22.40;100737.00;;;;4820583;29;20078;-77
2021/09/29 14:38:18;;;;;;;2.35;0.65;;;;;22.80;100727.00;;;;4819335;29;20054;-78
2021/09/29 14:40:50;;;;;;;3.67;1.25;;;;;22.80;100729.00;;;;4818467;29;20057;-78
2021/09/29 14:43:19;;;;;;;10.02;1.98;;;;;23.00;100736.00;;;;4804804;29;20522;-76
2021/09/29 14:45:49;;;;;;;10.98;3.55;;;;;23.10;100744.00;;;;4819922;29;20046;-77
2021/09/29 14:48:18;;;;;;;7.03;2.92;;;;;23.00;100740.00;;;;4820509;29;20072;-78
2021/09/29 14:50:49;;;;;;;11.20;2.53;;;;;22.90;100745.00;;;;4821281;29;20562;-78
2021/09/29 14:53:19;;;;;;;27.35;13.93;;;;;22.70;100743.00;;;;4820236;29;20466;-77
2021/09/29 14:55:49;;;;;;;9.15;2.40;;;;;22.50;100745.00;;;;4824065;29;20092;-77
2021/09/29 14:58:19;;;;;;;3.65;1.50;;;;;22.50;100740.00;;;;4818680;29;20058;-79
2021/09/29 15:00:49;;;;;;;6.88;2.17;;;;;22.70;100737.00;;;;4820581;29;20046;-79
2021/09/29 15:03:22;;;;;;;9.90;2.58;;;;;22.70;100747.00;;;;4820866;29;20054;-80